createdAt,value
2019-03-16T00:00:42.996Z,99.60
2019-03-16T00:03:10.649Z,99.20
2019-03-16T00:05:38.095Z,99.00
2019-03-16T00:08:05.676Z,99.00
2019-03-16T00:10:33.107Z,99.20
2019-03-16T00:13:00.511Z,99.20
2019-03-16T00:15:27.954Z,99.30
2019-03-16T00:17:55.525Z,99.20
2019-03-16T00:20:23.010Z,98.10
2019-03-16T00:22:50.606Z,97.70
2019-03-16T00:25:18.333Z,97.10
2019-03-16T00:27:45.785Z,97.30
2019-03-16T00:30:13.561Z,96.40
2019-03-16T00:32:40.940Z,95.80
2019-03-16T00:35:08.914Z,95.30
2019-03-16T00:37:36.597Z,94.40
2019-03-16T00:40:04.458Z,93.10
2019-03-16T00:42:31.793Z,92.40
2019-03-16T00:44:59.173Z,92.80
2019-03-16T00:47:26.601Z,92.20
2019-03-16T00:49:54.021Z,91.90
2019-03-16T00:52:21.363Z,91.80
2019-03-16T00:54:48.860Z,91.80
2019-03-16T00:57:16.328Z,91.90
2019-03-16T00:59:43.713Z,91.70
2019-03-16T01:02:11.167Z,91.70
2019-03-16T01:04:38.638Z,91.30
2019-03-16T01:07:06.082Z,90.90
2019-03-16T01:09:33.462Z,91.30
2019-03-16T01:12:00.824Z,90.70
2019-03-16T01:14:28.285Z,90.90
2019-03-16T01:16:57.429Z,91.30
2019-03-16T01:19:25.010Z,91.10
2019-03-16T01:22:21.096Z,91.00
2019-03-16T01:24:48.840Z,90.60
2019-03-16T01:27:16.355Z,90.60
2019-03-16T01:29:43.962Z,90.20
2019-03-16T01:32:12.519Z,90.30
2019-03-16T01:34:40.109Z,90.70
2019-03-16T01:37:07.733Z,90.40
2019-03-16T01:39:35.194Z,90.60
2019-03-16T01:42:02.645Z,90.60
2019-03-16T01:44:30.372Z,90.60
2019-03-16T01:46:58.465Z,90.30
2019-03-16T01:49:26.170Z,90.50
2019-03-16T01:51:53.582Z,90.50
2019-03-16T01:54:21.164Z,90.30
2019-03-16T01:56:48.732Z,90.30
2019-03-16T01:59:16.248Z,90.40
2019-03-16T02:01:43.728Z,90.40
2019-03-16T02:04:11.176Z,90.20
2019-03-16T02:06:38.677Z,90.00
2019-03-16T02:09:06.612Z,89.90
2019-03-16T02:11:33.955Z,90.10
2019-03-16T02:14:03.483Z,89.80
2019-03-16T02:16:31.014Z,90.60
2019-03-16T02:18:58.475Z,89.10
2019-03-16T02:21:25.940Z,90.00
2019-03-16T02:23:53.387Z,89.70
2019-03-16T02:26:20.849Z,89.40
2019-03-16T02:28:48.239Z,89.30
2019-03-16T02:31:15.829Z,89.30
2019-03-16T02:33:43.461Z,87.10
2019-03-16T02:36:10.880Z,86.90
2019-03-16T02:38:38.483Z,86.60
2019-03-16T02:41:05.963Z,87.30
2019-03-16T02:43:33.420Z,87.00
2019-03-16T02:46:01.070Z,86.90
2019-03-16T02:48:28.521Z,87.50
2019-03-16T02:50:56.723Z,87.70
2019-03-16T02:53:24.117Z,88.60
2019-03-16T02:55:51.707Z,88.80
2019-03-16T02:58:19.157Z,88.90
2019-03-16T03:00:46.923Z,89.50
2019-03-16T03:03:28.433Z,89.80
2019-03-16T03:05:43.947Z,89.20
2019-03-16T03:08:11.406Z,89.30
2019-03-16T03:10:38.901Z,89.70
2019-03-16T03:13:08.447Z,89.70
2019-03-16T03:15:35.896Z,89.70
2019-03-16T03:18:03.637Z,89.40
2019-03-16T03:20:31.037Z,89.90
2019-03-16T03:22:58.626Z,89.70
2019-03-16T03:25:26.084Z,90.00
2019-03-16T03:27:53.567Z,89.40
2019-03-16T03:30:20.956Z,89.60
2019-03-16T03:32:48.563Z,89.90
2019-03-16T03:35:17.954Z,90.20
2019-03-16T03:37:45.344Z,90.00
2019-03-16T03:40:13.029Z,90.00
2019-03-16T03:42:40.588Z,90.00
2019-03-16T03:45:08.452Z,90.50
2019-03-16T03:47:35.777Z,90.40
2019-03-16T03:50:06.190Z,90.50
2019-03-16T03:52:33.711Z,90.70
2019-03-16T03:55:01.474Z,90.90
2019-03-16T03:57:28.947Z,91.10
2019-03-16T03:59:56.434Z,91.50
2019-03-16T04:02:23.882Z,91.40
2019-03-16T04:04:51.329Z,91.60
2019-03-16T04:07:20.315Z,91.80
2019-03-16T04:09:48.020Z,92.00
2019-03-16T04:12:15.472Z,91.90
2019-03-16T04:14:43.004Z,92.10
2019-03-16T04:17:10.717Z,91.90
2019-03-16T04:19:38.121Z,91.90
2019-03-16T04:22:05.591Z,91.90
2019-03-16T04:24:33.234Z,91.60
2019-03-16T04:27:15.134Z,92.00
2019-03-16T04:29:30.407Z,92.00
2019-03-16T04:31:57.873Z,91.90
2019-03-16T04:34:29.599Z,91.80
2019-03-16T04:36:55.702Z,91.80
2019-03-16T04:39:23.407Z,91.70
2019-03-16T04:41:50.810Z,91.90
2019-03-16T04:44:18.312Z,92.10
2019-03-16T04:46:45.774Z,92.00
2019-03-16T04:49:13.309Z,92.20
2019-03-16T04:51:41.857Z,92.50
2019-03-16T04:54:09.399Z,92.50
2019-03-16T04:56:36.829Z,92.60
2019-03-16T04:59:04.474Z,92.40
2019-03-16T05:01:32.041Z,92.40
2019-03-16T05:03:59.534Z,92.00
2019-03-16T05:06:27.035Z,91.70
2019-03-16T05:08:54.989Z,92.00
2019-03-16T05:11:23.343Z,91.60
2019-03-16T05:13:51.483Z,91.10
2019-03-16T05:16:19.008Z,90.90
2019-03-16T05:18:46.500Z,90.90
2019-03-16T05:21:13.889Z,91.00
2019-03-16T05:23:41.619Z,90.50
2019-03-16T05:26:09.033Z,89.60
2019-03-16T05:28:36.487Z,89.40
2019-03-16T05:31:03.985Z,88.50
2019-03-16T05:33:31.470Z,87.80
2019-03-16T05:35:58.994Z,87.50
2019-03-16T05:38:26.487Z,86.00
2019-03-16T05:40:54.020Z,86.10
2019-03-16T05:43:21.514Z,85.20
2019-03-16T05:45:49.212Z,84.80
2019-03-16T05:48:17.444Z,84.30
2019-03-16T05:50:44.807Z,84.00
2019-03-16T05:53:12.292Z,83.10
2019-03-16T05:55:39.943Z,82.50
2019-03-16T05:58:08.422Z,80.90
2019-03-16T06:00:35.904Z,81.00
2019-03-16T06:03:03.761Z,81.00
2019-03-16T06:05:31.206Z,79.50
2019-03-16T06:07:58.813Z,80.20
2019-03-16T06:10:26.331Z,78.60
2019-03-16T06:12:55.563Z,78.40
2019-03-16T06:15:23.391Z,77.50
2019-03-16T06:17:50.990Z,77.20
2019-03-16T06:20:18.759Z,77.30
2019-03-16T06:22:46.364Z,76.20
2019-03-16T06:25:13.904Z,75.40
2019-03-16T06:27:42.073Z,74.80
2019-03-16T06:30:09.744Z,74.40
2019-03-16T06:32:37.089Z,75.20
2019-03-16T06:35:04.901Z,74.20
2019-03-16T06:37:32.348Z,74.10
2019-03-16T06:39:59.809Z,73.60
2019-03-16T06:42:27.345Z,73.70
2019-03-16T06:44:54.758Z,72.10
2019-03-16T06:47:23.248Z,72.20
2019-03-16T06:49:50.758Z,71.00
2019-03-16T06:52:18.349Z,72.30
2019-03-16T06:54:45.703Z,71.00
2019-03-16T06:57:13.068Z,70.50
2019-03-16T06:59:40.608Z,71.10
2019-03-16T07:02:07.994Z,70.90
2019-03-16T07:04:35.358Z,71.40
2019-03-16T07:07:03.605Z,71.90
2019-03-16T07:09:31.935Z,72.20
2019-03-16T07:12:00.075Z,71.90
2019-03-16T07:14:28.254Z,71.00
2019-03-16T07:17:02.089Z,71.00
2019-03-16T07:19:26.888Z,71.10
2019-03-16T07:21:54.966Z,69.70
2019-03-16T07:24:22.757Z,71.00
2019-03-16T07:26:50.507Z,71.10
2019-03-16T07:29:18.709Z,70.70
2019-03-16T07:31:46.266Z,70.40
2019-03-16T07:34:13.923Z,69.60
2019-03-16T07:36:44.452Z,70.30
2019-03-16T07:39:11.956Z,71.30
2019-03-16T07:41:40.664Z,69.30
2019-03-16T07:44:08.569Z,69.80
2019-03-16T07:46:36.094Z,69.90
2019-03-16T07:49:03.965Z,70.20
2019-03-16T07:51:31.840Z,70.90
2019-03-16T07:53:59.728Z,71.60
2019-03-16T07:56:27.166Z,71.40
2019-03-16T07:58:54.700Z,72.00
2019-03-16T08:01:22.426Z,71.70
2019-03-16T08:03:50.236Z,69.20
2019-03-16T08:06:19.123Z,69.00
2019-03-16T08:08:46.883Z,70.70
2019-03-16T08:11:14.643Z,69.00
2019-03-16T08:13:42.268Z,68.10
2019-03-16T08:16:10.916Z,68.20
2019-03-16T08:18:38.618Z,69.20
2019-03-16T08:21:06.138Z,67.70
2019-03-16T08:23:33.612Z,68.80
2019-03-16T08:26:02.585Z,68.10
2019-03-16T08:28:31.214Z,67.50
2019-03-16T08:30:59.704Z,68.00
2019-03-16T08:33:27.620Z,67.70
2019-03-16T08:35:55.380Z,67.30
2019-03-16T08:38:22.844Z,66.80
2019-03-16T08:40:50.471Z,66.50
2019-03-16T08:43:18.448Z,66.60
2019-03-16T08:45:46.209Z,65.80
2019-03-16T08:48:22.748Z,65.60
2019-03-16T08:50:44.771Z,66.60
2019-03-16T08:53:12.367Z,64.50
2019-03-16T08:55:40.131Z,63.50
2019-03-16T08:58:07.859Z,62.00
2019-03-16T09:00:35.724Z,63.60
2019-03-16T09:03:03.242Z,63.30
2019-03-16T09:05:31.083Z,64.00
2019-03-16T09:09:03.249Z,60.20
2019-03-16T09:11:31.778Z,59.30
2019-03-16T09:13:59.937Z,61.10
2019-03-16T09:16:27.682Z,61.30
2019-03-16T09:18:55.401Z,60.00
2019-03-16T09:21:23.103Z,59.30
2019-03-16T09:23:51.318Z,58.60
2019-03-16T09:26:56.657Z,56.10
2019-03-16T09:29:25.415Z,52.20
2019-03-16T09:31:52.930Z,53.90
2019-03-16T09:34:20.612Z,54.90
2019-03-16T09:36:48.282Z,53.50
2019-03-16T09:39:15.916Z,53.20
2019-03-16T09:42:15.356Z,53.20
2019-03-16T09:44:43.186Z,53.00
2019-03-16T09:47:10.914Z,53.80
2019-03-16T09:50:14.545Z,54.40
2019-03-16T09:52:42.048Z,55.10
2019-03-16T09:55:11.979Z,53.70
2019-03-16T09:57:39.902Z,51.90
2019-03-16T10:00:10.453Z,50.90
2019-03-16T10:02:38.046Z,49.40
2019-03-16T10:05:05.701Z,48.50
2019-03-16T10:07:33.231Z,49.40
2019-03-16T10:10:00.792Z,46.20
2019-03-16T10:12:28.564Z,45.60
2019-03-16T10:14:56.009Z,43.70
2019-03-16T10:17:23.619Z,41.60
2019-03-16T10:19:51.233Z,43.10
2019-03-16T10:22:19.264Z,44.10
2019-03-16T10:24:50.180Z,45.70
2019-03-16T10:27:17.926Z,46.80
2019-03-16T10:29:45.505Z,48.20
2019-03-16T10:32:13.091Z,48.90
2019-03-16T10:34:40.650Z,46.50
2019-03-16T10:37:08.307Z,46.60
2019-03-16T10:39:35.927Z,47.10
2019-03-16T10:42:03.742Z,45.50
2019-03-16T10:44:31.873Z,40.10
2019-03-16T10:46:59.461Z,39.20
2019-03-16T10:49:27.089Z,38.60
2019-03-16T10:51:54.722Z,38.80
2019-03-16T10:54:22.307Z,40.70
2019-03-16T10:56:49.801Z,42.40
2019-03-16T10:59:17.439Z,43.60
2019-03-16T11:01:46.196Z,43.30
2019-03-16T11:04:13.956Z,41.90
2019-03-16T11:06:41.443Z,42.00
2019-03-16T11:09:09.259Z,43.00
2019-03-16T11:11:36.894Z,43.50
2019-03-16T11:14:04.563Z,45.40
2019-03-16T11:16:32.161Z,46.50
2019-03-16T11:18:59.819Z,46.50
2019-03-16T11:21:27.139Z,47.10
2019-03-16T11:23:54.695Z,46.90
2019-03-16T11:26:22.188Z,47.50
2019-03-16T11:28:49.654Z,46.30
2019-03-16T11:31:17.277Z,44.10
2019-03-16T11:33:48.435Z,43.90
2019-03-16T11:36:15.259Z,44.70
2019-03-16T11:38:42.959Z,43.90
2019-03-16T11:41:10.448Z,43.20
2019-03-16T11:43:38.173Z,43.90
2019-03-16T11:46:05.918Z,43.10
2019-03-16T11:48:33.430Z,43.30
2019-03-16T11:51:00.912Z,41.50
2019-03-16T11:53:28.980Z,41.80
2019-03-16T11:55:56.787Z,41.90
2019-03-16T11:58:24.336Z,40.40
2019-03-16T12:00:51.912Z,37.70
2019-03-16T12:03:26.324Z,36.90
2019-03-16T12:05:54.056Z,37.40
2019-03-16T12:08:21.575Z,38.40
2019-03-16T12:10:49.300Z,39.00
2019-03-16T12:13:18.733Z,40.00
2019-03-16T12:15:48.954Z,41.00
2019-03-16T12:18:16.497Z,41.50
2019-03-16T12:20:43.897Z,41.10
2019-03-16T12:23:11.416Z,40.40
2019-03-16T12:25:38.890Z,40.10
2019-03-16T12:28:09.522Z,39.10
2019-03-16T12:30:36.929Z,39.70
2019-03-16T12:33:04.477Z,40.50
2019-03-16T12:35:34.323Z,39.80
2019-03-16T12:38:05.289Z,38.70
2019-03-16T12:40:33.276Z,39.50
2019-03-16T12:43:02.938Z,39.60
2019-03-16T12:45:31.553Z,40.40
2019-03-16T12:48:00.444Z,41.50
2019-03-16T12:50:30.971Z,41.60
2019-03-16T12:53:03.728Z,41.80
2019-03-16T12:55:33.856Z,43.30
2019-03-16T12:58:04.168Z,44.20
2019-03-16T13:00:34.514Z,45.20
2019-03-16T13:03:02.084Z,45.40
2019-03-16T13:05:29.566Z,46.30
2019-03-16T13:07:56.905Z,46.50
2019-03-16T13:11:28.672Z,46.70
2019-03-16T13:13:38.366Z,47.10
2019-03-16T13:16:05.925Z,48.20
2019-03-16T13:18:34.068Z,48.30
2019-03-16T13:21:02.551Z,48.00
2019-03-16T13:23:30.686Z,48.00
2019-03-16T13:25:58.313Z,47.80
2019-03-16T13:28:25.774Z,47.90
2019-03-16T13:30:54.832Z,48.20
2019-03-16T13:33:23.209Z,48.30
2019-03-16T13:35:50.657Z,47.70
2019-03-16T13:38:18.301Z,47.80
2019-03-16T13:40:45.878Z,48.30
2019-03-16T13:43:13.720Z,48.10
2019-03-16T13:45:43.689Z,48.30
2019-03-16T13:48:12.248Z,47.70
2019-03-16T13:50:42.897Z,48.20
2019-03-16T13:53:10.955Z,48.30
2019-03-16T13:55:38.761Z,48.20
2019-03-16T13:58:06.419Z,48.20
2019-03-16T14:00:34.730Z,48.90
2019-03-16T14:03:03.984Z,49.30
2019-03-16T14:05:31.875Z,48.70
2019-03-16T14:07:59.448Z,48.30
2019-03-16T14:10:28.807Z,48.90
2019-03-16T14:12:56.434Z,48.00
2019-03-16T14:15:24.279Z,48.20
2019-03-16T14:17:51.857Z,48.80
2019-03-16T14:20:20.652Z,49.30
2019-03-16T14:22:48.268Z,50.20
2019-03-16T14:25:15.828Z,51.40
2019-03-16T14:27:43.637Z,51.70
2019-03-16T14:30:23.946Z,52.90
2019-03-16T14:32:41.704Z,52.80
2019-03-16T14:35:09.462Z,51.90
2019-03-16T14:37:37.108Z,52.10
2019-03-16T14:40:04.975Z,51.40
2019-03-16T14:42:33.124Z,51.60
2019-03-16T14:45:00.597Z,51.70
2019-03-16T14:47:28.141Z,50.50
2019-03-16T14:49:57.582Z,51.40
2019-03-16T14:52:26.773Z,51.40
2019-03-16T14:54:55.431Z,51.60
2019-03-16T14:57:23.311Z,53.00
2019-03-16T14:59:50.972Z,52.20
2019-03-16T15:02:18.407Z,52.30
2019-03-16T15:04:46.525Z,52.90
2019-03-16T15:07:15.165Z,53.40
2019-03-16T15:09:42.721Z,53.90
2019-03-16T15:12:10.215Z,53.70
2019-03-16T15:14:38.014Z,53.30
2019-03-16T15:17:05.524Z,53.30
2019-03-16T15:19:52.158Z,54.10
2019-03-16T15:22:20.049Z,54.10
2019-03-16T15:24:47.670Z,53.90
2019-03-16T15:27:16.064Z,54.00
2019-03-16T15:29:43.946Z,53.90
2019-03-16T15:32:11.649Z,53.90
2019-03-16T15:34:39.071Z,54.40
2019-03-16T15:37:08.162Z,54.50
2019-03-16T15:39:35.762Z,54.60
2019-03-16T15:42:04.067Z,54.60
2019-03-16T15:44:31.672Z,54.80
2019-03-16T15:46:59.158Z,54.40
2019-03-16T15:49:26.734Z,54.10
2019-03-16T15:51:54.417Z,54.80
2019-03-16T15:54:22.327Z,55.60
2019-03-16T15:56:49.855Z,56.30
2019-03-16T15:59:17.214Z,56.60
2019-03-16T16:01:44.953Z,59.30
2019-03-16T16:04:12.471Z,61.10
2019-03-16T16:06:40.030Z,64.10
2019-03-16T16:09:07.658Z,64.70
2019-03-16T16:11:35.381Z,66.70
2019-03-16T16:14:02.994Z,68.60
2019-03-16T16:16:30.701Z,68.60
2019-03-16T16:18:59.191Z,69.70
2019-03-16T16:21:26.845Z,70.50
2019-03-16T16:23:54.567Z,71.80
2019-03-16T16:26:21.971Z,72.30
2019-03-16T16:28:49.528Z,72.70
2019-03-16T16:31:17.040Z,73.10
2019-03-16T16:33:44.503Z,74.00
2019-03-16T16:36:12.025Z,74.50
2019-03-16T16:38:40.892Z,75.30
2019-03-16T16:41:09.499Z,76.10
2019-03-16T16:43:36.871Z,76.20
2019-03-16T16:46:04.568Z,77.30
2019-03-16T16:48:33.360Z,77.30
2019-03-16T16:51:01.520Z,77.40
2019-03-16T16:53:30.048Z,77.70
2019-03-16T16:55:59.132Z,78.20
2019-03-16T16:58:26.591Z,78.50
2019-03-16T17:00:54.072Z,78.80
2019-03-16T17:03:25.944Z,78.80
2019-03-16T17:05:55.723Z,79.20
2019-03-16T17:08:24.075Z,79.40
2019-03-16T17:10:52.088Z,79.80
2019-03-16T17:13:19.607Z,80.00
2019-03-16T17:15:47.191Z,80.20
2019-03-16T17:18:14.574Z,81.30
2019-03-16T17:20:42.112Z,80.50
2019-03-16T17:23:11.397Z,81.20
2019-03-16T17:25:39.050Z,81.30
2019-03-16T17:28:06.406Z,81.40
2019-03-16T17:30:33.944Z,81.80
2019-03-16T17:33:01.421Z,81.80
2019-03-16T17:35:28.875Z,81.80
2019-03-16T17:37:56.549Z,82.20
2019-03-16T17:40:24.178Z,82.30
2019-03-16T17:42:51.696Z,82.10
2019-03-16T17:45:19.106Z,82.60
2019-03-16T17:47:48.244Z,83.10
2019-03-16T17:50:16.319Z,82.90
2019-03-16T17:52:45.023Z,83.30
2019-03-16T17:55:12.705Z,83.00
2019-03-16T17:57:40.193Z,83.40
2019-03-16T18:00:10.611Z,83.80
2019-03-16T18:02:50.662Z,84.60
2019-03-16T18:05:07.849Z,84.80
2019-03-16T18:07:35.223Z,85.30
2019-03-16T18:10:03.483Z,86.10
2019-03-16T18:12:30.969Z,86.30
2019-03-16T18:14:58.368Z,87.10
2019-03-16T18:17:26.093Z,87.60
2019-03-16T18:19:54.292Z,88.10
2019-03-16T18:22:21.917Z,89.30
2019-03-16T18:24:49.925Z,89.80
2019-03-16T18:27:17.996Z,90.10
2019-03-16T18:29:45.577Z,90.00
2019-03-16T18:32:13.050Z,90.30
2019-03-16T18:34:40.500Z,90.40
2019-03-16T18:37:08.102Z,90.70
2019-03-16T18:39:36.593Z,90.70
2019-03-16T18:42:04.205Z,90.90
2019-03-16T18:44:32.031Z,91.00
2019-03-16T18:46:59.497Z,90.90
2019-03-16T18:49:27.195Z,90.80
2019-03-16T18:51:55.443Z,90.80
2019-03-16T18:54:22.936Z,91.00
2019-03-16T18:56:50.611Z,91.00
2019-03-16T18:59:18.182Z,91.10
2019-03-16T19:01:45.609Z,91.10
2019-03-16T19:04:13.122Z,91.10
2019-03-16T19:06:40.897Z,91.40
2019-03-16T19:09:09.014Z,91.60
2019-03-16T19:11:37.077Z,91.70
2019-03-16T19:14:04.793Z,91.90
2019-03-16T19:16:32.308Z,92.00
2019-03-16T19:18:59.910Z,92.30
2019-03-16T19:21:28.557Z,92.30
2019-03-16T19:23:56.438Z,92.40
2019-03-16T19:26:24.088Z,92.60
2019-03-16T19:28:52.456Z,92.70
2019-03-16T19:31:20.895Z,93.00
2019-03-16T19:33:48.849Z,93.00
2019-03-16T19:36:16.246Z,92.80
2019-03-16T19:38:43.745Z,93.10
2019-03-16T19:41:12.313Z,93.10
2019-03-16T19:43:40.350Z,93.30
2019-03-16T19:46:08.030Z,93.20
2019-03-16T19:48:35.701Z,93.50
2019-03-16T19:51:04.391Z,93.50
2019-03-16T19:53:31.951Z,93.70
2019-03-16T19:55:59.406Z,93.80
2019-03-16T19:58:27.198Z,93.90
2019-03-16T20:00:56.820Z,93.90
2019-03-16T20:03:24.672Z,94.10
2019-03-16T20:05:52.793Z,94.20
2019-03-16T20:08:20.278Z,94.30
2019-03-16T20:11:14.088Z,94.40
2019-03-16T20:13:42.493Z,94.40
2019-03-16T20:16:10.536Z,94.70
2019-03-16T20:18:39.569Z,94.70
2019-03-16T20:21:07.409Z,94.80
2019-03-16T20:23:35.163Z,94.90
2019-03-16T20:26:02.875Z,95.00
2019-03-16T20:28:31.566Z,95.30
2019-03-16T20:30:59.287Z,95.10
2019-03-16T20:33:26.815Z,95.10
2019-03-16T20:35:54.531Z,95.10
2019-03-16T20:38:21.974Z,94.90
2019-03-16T20:40:50.568Z,94.90
2019-03-16T20:43:18.664Z,94.80
2019-03-16T20:45:46.035Z,94.80
2019-03-16T20:48:13.498Z,94.80
2019-03-16T20:50:40.957Z,94.70
2019-03-16T20:53:08.306Z,94.90
2019-03-16T20:55:35.725Z,94.80
2019-03-16T20:58:03.776Z,94.80
2019-03-16T21:00:31.619Z,94.80
2019-03-16T21:03:01.969Z,94.90
2019-03-16T21:05:29.457Z,94.80
2019-03-16T21:07:57.021Z,94.80
2019-03-16T21:10:24.684Z,95.20
2019-03-16T21:12:51.989Z,95.00
2019-03-16T21:15:19.547Z,94.90
2019-03-16T21:17:49.121Z,95.00
2019-03-16T21:20:18.903Z,95.00
2019-03-16T21:22:46.607Z,95.10
2019-03-16T21:25:14.565Z,95.10
2019-03-16T21:27:47.033Z,95.20
2019-03-16T21:30:22.288Z,95.20
2019-03-16T21:32:50.793Z,95.30
2019-03-16T21:35:19.214Z,95.40
2019-03-16T21:37:47.018Z,95.50
2019-03-16T21:40:14.853Z,95.40
2019-03-16T21:42:42.869Z,95.50
2019-03-16T21:45:13.403Z,95.50
2019-03-16T21:47:41.206Z,95.50
2019-03-16T21:50:09.601Z,95.50
2019-03-16T21:52:37.727Z,95.60
2019-03-16T21:55:05.835Z,95.50
2019-03-16T21:57:36.486Z,95.50
2019-03-16T22:00:07.771Z,95.50
2019-03-16T22:02:35.292Z,95.70
2019-03-16T22:05:03.297Z,95.60
2019-03-16T22:07:30.825Z,95.70
2019-03-16T22:09:58.524Z,95.80
2019-03-16T22:12:26.123Z,95.80
2019-03-16T22:14:53.819Z,95.70
2019-03-16T22:17:21.453Z,95.80
2019-03-16T22:19:49.154Z,95.80
2019-03-16T22:22:16.777Z,95.90
2019-03-16T22:24:44.460Z,95.90
2019-03-16T22:27:12.053Z,96.00
2019-03-16T22:29:39.738Z,96.00
2019-03-16T22:32:07.262Z,96.00
2019-03-16T22:34:34.850Z,96.00
2019-03-16T22:37:02.395Z,96.00
2019-03-16T22:39:30.092Z,96.20
2019-03-16T22:41:57.690Z,96.20
2019-03-16T22:44:25.373Z,96.20
2019-03-16T22:46:52.939Z,96.30
2019-03-16T22:49:20.630Z,96.40
2019-03-16T22:51:48.321Z,96.40
2019-03-16T22:54:18.997Z,96.50
2019-03-16T22:56:46.009Z,96.60
2019-03-16T22:59:13.986Z,96.60
2019-03-16T23:01:41.800Z,96.70
2019-03-16T23:04:09.466Z,97.10
2019-03-16T23:06:37.355Z,97.00
2019-03-16T23:09:06.680Z,96.90
2019-03-16T23:11:34.222Z,96.90
2019-03-16T23:14:04.879Z,97.00
2019-03-16T23:16:32.606Z,97.10
2019-03-16T23:19:00.141Z,97.10
2019-03-16T23:21:27.768Z,97.20
2019-03-16T23:23:55.465Z,97.30
2019-03-16T23:26:23.125Z,97.40
2019-03-16T23:28:50.790Z,97.40
2019-03-16T23:31:18.418Z,97.50
2019-03-16T23:33:45.836Z,97.50
2019-03-16T23:36:13.324Z,97.50
2019-03-16T23:38:40.808Z,97.60
2019-03-16T23:41:08.308Z,97.60
2019-03-16T23:43:35.631Z,97.70
2019-03-16T23:46:03.413Z,97.80
2019-03-16T23:48:30.941Z,97.80
2019-03-16T23:50:58.596Z,97.70
2019-03-16T23:53:26.090Z,97.80
2019-03-16T23:55:53.483Z,97.80
2019-03-16T23:58:21.039Z,97.80
